Time;durP1;ratioP1;P1;durP2;ratioP2;P2;SDS_P1;SDS_P2;PMS_P1;PMS_P2;Temp;Humidity;BMP_temperature;BMP_pressure;BME280_temperature;BME280_humidity;BME280_pressure;Samples;Min_cycle;Max_cycle;Signal;HPM_P1;HPM_P2
2023/01/01 00:00:23;;;;;;;34.65;17.85;;;15.00;99.90;;;;;;4943655;28;20452;-91
2023/01/01 00:02:49;;;;;;;35.92;20.20;;;15.00;99.90;;;;;;4928481;29;20038;-91
2023/01/01 00:05:15;;;;;;;29.17;20.48;;;14.90;99.90;;;;;;4928504;29;20039;-91
2023/01/01 00:07:41;;;;;;;27.90;18.25;;;14.90;99.90;;;;;;4945056;29;20032;-90
2023/01/01 00:10:28;;;;;;;30.88;18.50;;;14.90;99.90;;;;;;4962120;29;20051;-91
2023/01/01 00:12:57;;;;;;;36.88;18.42;;;14.90;99.90;;;;;;4946693;29;20054;-92
2023/01/01 00:15:23;;;;;;;29.77;18.13;;;15.00;99.90;;;;;;4923471;28;20031;-91
2023/01/01 00:17:49;;;;;;;32.10;17.92;;;14.90;99.90;;;;;;4957572;29;20031;-91
2023/01/01 00:20:16;;;;;;;30.50;19.15;;;14.80;99.90;;;;;;4943251;29;20038;-92
2023/01/01 00:22:42;;;;;;;32.50;17.83;;;14.80;99.90;;;;;;4939329;29;20396;-92
2023/01/01 00:25:10;;;;;;;30.33;18.70;;;14.80;99.90;;;;;;4955524;29;20030;-92
2023/01/01 00:27:36;;;;;;;34.28;18.10;;;14.80;99.90;;;;;;4924375;29;20408;-92
2023/01/01 00:30:03;;;;;;;28.77;17.52;;;14.80;99.90;;;;;;4939243;29;20484;-91
2023/01/01 00:32:29;;;;;;;31.33;17.88;;;14.80;99.90;;;;;;4955315;29;20047;-92
2023/01/01 00:34:55;;;;;;;28.55;17.00;;;14.80;99.90;;;;;;4924493;29;20035;-91
2023/01/01 00:37:21;;;;;;;34.28;18.40;;;14.70;99.90;;;;;;4955950;29;20042;-91
2023/01/01 00:39:47;;;;;;;31.67;16.55;;;14.70;99.90;;;;;;4955579;29;20488;-91
2023/01/01 00:42:13;;;;;;;29.58;18.13;;;14.70;99.90;;;;;;4938824;29;20041;-93
2023/01/01 00:44:39;;;;;;;31.20;16.70;;;14.70;99.90;;;;;;4955798;29;20417;-91
2023/01/01 00:47:05;;;;;;;29.00;16.08;;;14.70;99.90;;;;;;4937335;29;20035;-92
2023/01/01 00:49:31;;;;;;;41.40;17.42;;;14.70;99.90;;;;;;4955516;29;20039;-91
2023/01/01 00:51:57;;;;;;;24.23;16.27;;;14.60;99.90;;;;;;4955795;29;20043;-91
2023/01/01 00:54:24;;;;;;;32.88;16.92;;;14.60;99.90;;;;;;4938335;29;20481;-91
2023/01/01 00:56:50;;;;;;;34.72;17.20;;;14.50;99.90;;;;;;4938700;29;20035;-92
2023/01/01 00:59:16;;;;;;;29.77;17.08;;;14.50;99.90;;;;;;4922767;29;20051;-91
2023/01/01 01:01:42;;;;;;;34.58;17.35;;;14.50;99.90;;;;;;4955158;28;20042;-93
2023/01/01 01:04:08;;;;;;;23.13;16.45;;;14.50;99.90;;;;;;4938579;29;20460;-91
2023/01/01 01:06:34;;;;;;;31.80;17.38;;;14.50;99.90;;;;;;4922762;29;20031;-92
2023/01/01 01:09:00;;;;;;;27.42;17.92;;;14.50;99.90;;;;;;4922617;29;20035;-92
2023/01/01 01:11:26;;;;;;;28.10;16.48;;;14.50;99.90;;;;;;4937481;29;20606;-92
2023/01/01 01:13:54;;;;;;;29.50;17.90;;;14.50;99.90;;;;;;4938277;29;20051;-93
2023/01/01 01:16:25;;;;;;;25.00;15.75;;;14.40;99.90;;;;;;4922268;29;20034;-92
2023/01/01 01:18:52;;;;;;;33.08;18.20;;;14.50;99.90;;;;;;4938498;29;20035;-93
2023/01/01 01:21:19;;;;;;;29.23;17.25;;;14.50;99.90;;;;;;4935251;29;20023;-91
2023/01/01 01:23:46;;;;;;;30.95;17.00;;;14.50;99.90;;;;;;4953804;29;20030;-92
2023/01/01 01:26:17;;;;;;;25.17;18.55;;;14.50;99.90;;;;;;4933859;29;20507;-91
2023/01/01 01:28:43;;;;;;;26.02;18.73;;;14.40;99.90;;;;;;4921935;29;20039;-92
2023/01/01 01:31:09;;;;;;;30.85;17.88;;;14.40;99.90;;;;;;4938022;29;20396;-92
2023/01/01 01:33:35;;;;;;;26.13;17.83;;;14.40;99.90;;;;;;4922268;29;20512;-93
2023/01/01 01:36:02;;;;;;;30.58;17.75;;;14.40;99.90;;;;;;4921759;29;20066;-91
2023/01/01 01:38:29;;;;;;;27.67;18.27;;;14.40;99.90;;;;;;4937718;29;20031;-92
2023/01/01 01:40:55;;;;;;;31.33;19.17;;;14.40;99.90;;;;;;4922482;29;20034;-91
2023/01/01 01:43:23;;;;;;;30.42;18.38;;;14.40;99.90;;;;;;4955223;29;20515;-93
2023/01/01 01:45:53;;;;;;;23.85;17.65;;;14.40;99.90;;;;;;4937897;29;20031;-92
2023/01/01 01:48:19;;;;;;;25.23;18.83;;;14.40;99.90;;;;;;4923086;29;20034;-91
2023/01/01 01:50:45;;;;;;;26.70;18.75;;;14.30;99.90;;;;;;4922712;29;20365;-92
2023/01/01 01:53:14;;;;;;;24.38;19.63;;;14.30;99.90;;;;;;4921518;29;20051;-92
2023/01/01 01:55:44;;;;;;;37.53;19.58;;;14.30;99.90;;;;;;4938330;29;20039;-92
2023/01/01 01:58:10;;;;;;;26.77;20.13;;;14.40;99.90;;;;;;4922284;29;20050;-91
2023/01/01 02:00:37;;;;;;;27.35;20.95;;;14.30;99.90;;;;;;4921563;29;20055;-93
2023/01/01 02:03:08;;;;;;;27.55;20.83;;;14.30;99.90;;;;;;4938107;29;20477;-93
2023/01/01 02:05:34;;;;;;;27.15;21.25;;;14.30;99.90;;;;;;4922262;29;20039;-91
2023/01/01 02:08:01;;;;;;;27.27;20.83;;;14.30;99.90;;;;;;4922007;29;20035;-92
2023/01/01 02:10:27;;;;;;;33.90;20.33;;;14.30;99.90;;;;;;4938009;29;20469;-91
2023/01/01 02:12:53;;;;;;;36.55;19.92;;;14.30;99.90;;;;;;4954850;29;20039;-92
2023/01/01 02:15:21;;;;;;;25.88;21.95;;;14.30;99.90;;;;;;4937700;28;20034;-92
2023/01/01 02:18:14;;;;;;;25.85;19.88;;;14.30;99.90;;;;;;4938101;29;20027;-91
2023/01/01 02:20:54;;;;;;;26.63;19.83;;;14.30;99.90;;;;;;4933997;29;20063;-91
2023/01/01 02:23:31;;;;;;;26.80;18.58;;;14.30;99.90;;;;;;4939300;29;20043;-91
2023/01/01 02:25:59;;;;;;;33.53;19.65;;;14.30;99.90;;;;;;4955580;29;20038;-93
2023/01/01 02:28:28;;;;;;;31.27;20.13;;;14.30;99.90;;;;;;4959861;29;20032;-91
2023/01/01 02:30:54;;;;;;;30.70;18.77;;;14.20;99.90;;;;;;4957909;28;20054;-92
2023/01/01 02:33:22;;;;;;;24.52;20.00;;;14.20;99.90;;;;;;4925574;29;20047;-93
2023/01/01 02:35:57;;;;;;;27.95;19.88;;;14.30;99.90;;;;;;4925125;29;20050;-91
2023/01/01 02:38:36;;;;;;;26.02;19.83;;;14.30;99.90;;;;;;4924874;29;20043;-92
2023/01/01 02:41:14;;;;;;;27.33;19.98;;;14.20;99.90;;;;;;4941318;29;20028;-91
2023/01/01 02:43:41;;;;;;;24.60;18.75;;;14.20;99.90;;;;;;4942252;29;20038;-92
2023/01/01 02:46:08;;;;;;;33.05;20.65;;;14.10;99.90;;;;;;4912079;29;20055;-93
2023/01/01 02:48:34;;;;;;;24.98;20.63;;;14.10;99.90;;;;;;4963376;29;20097;-92
2023/01/01 02:51:01;;;;;;;27.08;19.30;;;14.20;99.90;;;;;;4963250;29;20031;-93
2023/01/01 02:53:32;;;;;;;26.50;18.92;;;14.20;99.90;;;;;;4950096;29;20039;-91
2023/01/01 02:56:04;;;;;;;;;;;14.20;99.90;;;;;;4935753;29;20035;-92
2023/01/01 03:01:50;;;;;;;23.80;17.23;;;14.20;99.90;;;;;;4969519;28;20043;-93
2023/01/01 03:04:36;;;;;;;30.10;17.20;;;14.10;99.90;;;;;;4927582;29;20039;-92
2023/01/01 03:07:34;;;;;;;23.55;18.27;;;14.10;99.90;;;;;;4946851;29;20047;-92
2023/01/01 03:10:25;;;;;;;28.20;17.13;;;14.10;99.90;;;;;;4946746;29;20031;-92
2023/01/01 03:12:58;;;;;;;31.38;18.73;;;14.10;99.90;;;;;;4921381;29;20519;-92
2023/01/01 03:15:32;;;;;;;27.73;19.00;;;14.10;99.90;;;;;;4940709;28;20035;-92
2023/01/01 03:18:01;;;;;;;26.23;18.75;;;14.10;99.90;;;;;;4940228;29;20027;-92
2023/01/01 03:20:29;;;;;;;31.77;19.40;;;14.10;99.90;;;;;;4956679;28;20031;-92
2023/01/01 03:22:56;;;;;;;26.20;19.50;;;14.10;99.90;;;;;;4940194;29;20024;-93
2023/01/01 03:25:28;;;;;;;26.92;17.90;;;14.10;99.90;;;;;;4932102;29;20034;-93
2023/01/01 03:28:00;;;;;;;30.38;19.65;;;14.10;99.90;;;;;;4923924;29;20034;-92
2023/01/01 03:30:27;;;;;;;30.42;17.63;;;14.10;99.90;;;;;;4924030;29;20087;-93
2023/01/01 03:32:59;;;;;;;24.85;17.85;;;14.10;99.90;;;;;;4923136;29;20445;-92
2023/01/01 03:35:46;;;;;;;27.02;17.20;;;14.10;99.90;;;;;;4923057;29;20046;-92
2023/01/01 03:38:25;;;;;;;29.67;17.73;;;14.10;99.90;;;;;;4926250;29;20039;-92
2023/01/01 03:40:53;;;;;;;27.08;16.83;;;14.10;99.90;;;;;;4924942;29;20480;-92
2023/01/01 03:43:30;;;;;;;33.80;17.17;;;14.10;99.90;;;;;;4924698;29;20034;-92
2023/01/01 03:45:56;;;;;;;31.38;18.92;;;14.20;99.90;;;;;;4940944;28;20046;-92
2023/01/01 03:48:22;;;;;;;27.35;17.10;;;14.20;99.90;;;;;;4939881;29;20035;-92
2023/01/01 03:50:51;;;;;;;29.65;17.17;;;14.20;99.90;;;;;;4924437;29;20491;-92
2023/01/01 03:53:29;;;;;;;31.20;18.42;;;14.20;99.90;;;;;;4956814;29;20039;-93
2023/01/01 03:56:22;;;;;;;30.45;18.83;;;14.10;99.90;;;;;;4940350;29;20038;-93
2023/01/01 03:58:58;;;;;;;23.77;19.00;;;14.10;99.90;;;;;;4926226;29;20038;-92
2023/01/01 04:01:36;;;;;;;34.70;21.02;;;14.10;99.90;;;;;;4924772;29;20484;-93
2023/01/01 04:04:02;;;;;;;26.73;19.33;;;14.20;99.90;;;;;;4923760;29;20468;-91
2023/01/01 04:06:28;;;;;;;35.47;20.58;;;14.10;99.90;;;;;;4923930;29;20050;-90
2023/01/01 04:08:56;;;;;;;33.85;22.05;;;14.10;99.90;;;;;;4956284;29;20036;-91
2023/01/01 04:14:09;;;;;;;27.42;20.95;;;14.10;99.90;;;;;;4928447;29;20054;-90
2023/01/01 04:16:35;;;;;;;28.55;22.08;;;14.00;99.90;;;;;;4922672;28;20031;-91
2023/01/01 04:19:01;;;;;;;28.10;22.55;;;14.00;99.90;;;;;;4938590;29;20046;-90
2023/01/01 04:21:27;;;;;;;34.70;21.95;;;14.00;99.90;;;;;;4936810;29;20035;-90
2023/01/01 04:23:53;;;;;;;30.65;22.27;;;14.10;99.90;;;;;;4955624;29;20492;-91
2023/01/01 04:26:19;;;;;;;30.00;23.27;;;14.10;99.90;;;;;;4933412;29;20039;-91
2023/01/01 04:28:45;;;;;;;30.58;24.83;;;14.00;99.90;;;;;;4955766;29;20397;-91
2023/01/01 04:31:12;;;;;;;31.33;23.27;;;14.00;99.90;;;;;;4938233;28;20050;-91
2023/01/01 04:33:38;;;;;;;31.17;23.20;;;14.00;99.90;;;;;;4937917;29;20055;-90
2023/01/01 04:36:05;;;;;;;34.08;23.05;;;14.00;99.90;;;;;;4938075;29;20405;-91
2023/01/01 04:38:35;;;;;;;34.00;25.77;;;14.00;99.90;;;;;;4938514;29;20404;-89
2023/01/01 04:41:01;;;;;;;32.35;23.75;;;14.00;99.90;;;;;;4922774;29;20031;-89
2023/01/01 04:43:27;;;;;;;30.88;23.98;;;14.00;99.90;;;;;;4938389;29;20042;-90
2023/01/01 04:45:58;;;;;;;29.27;24.38;;;14.00;99.90;;;;;;4936051;29;20035;-89
2023/01/01 04:48:24;;;;;;;30.70;25.07;;;14.00;99.90;;;;;;4922811;29;20024;-90
2023/01/01 04:51:03;;;;;;;36.92;25.58;;;14.00;99.90;;;;;;4938326;29;20031;-89
2023/01/01 04:53:32;;;;;;;27.77;24.23;;;14.00;99.90;;;;;;4938102;29;20035;-88
2023/01/01 04:56:18;;;;;;;31.50;26.65;;;13.90;99.90;;;;;;4955384;29;20358;-90
2023/01/01 04:58:44;;;;;;;33.22;25.10;;;13.90;99.90;;;;;;4922215;29;20522;-91
2023/01/01 05:01:20;;;;;;;31.77;24.40;;;13.90;99.90;;;;;;4921676;29;20031;-90
2023/01/01 05:03:46;;;;;;;32.83;24.98;;;14.00;99.90;;;;;;4923138;29;20035;-90
2023/01/01 05:06:13;;;;;;;29.45;23.48;;;14.00;99.90;;;;;;4922140;29;20031;-91
2023/01/01 05:08:40;;;;;;;27.85;23.75;;;13.90;99.90;;;;;;4922264;29;20030;-90
2023/01/01 05:11:13;;;;;;;28.40;24.05;;;13.90;99.90;;;;;;4937146;29;20039;-90
2023/01/01 05:13:41;;;;;;;34.95;24.25;;;13.90;99.90;;;;;;4938248;29;20039;-90
2023/01/01 05:16:09;;;;;;;27.10;23.90;;;13.90;99.90;;;;;;4921516;29;20038;-90
2023/01/01 05:18:35;;;;;;;28.95;24.90;;;13.90;99.90;;;;;;4937824;29;20038;-90
2023/01/01 05:21:06;;;;;;;31.15;25.50;;;13.90;99.90;;;;;;4948415;29;20023;-91
2023/01/01 05:23:33;;;;;;;26.58;23.83;;;13.90;99.90;;;;;;4937695;29;20046;-91
2023/01/01 05:25:59;;;;;;;30.42;25.30;;;13.90;99.90;;;;;;4954959;29;20042;-91
2023/01/01 05:28:25;;;;;;;27.92;23.73;;;13.80;99.90;;;;;;4954710;29;20027;-90
2023/01/01 05:30:51;;;;;;;29.92;25.60;;;13.90;99.90;;;;;;4954024;28;20031;-92
2023/01/01 05:33:18;;;;;;;30.23;26.67;;;13.80;99.90;;;;;;4921666;29;20055;-91
2023/01/01 05:35:44;;;;;;;30.13;25.58;;;13.80;99.90;;;;;;4937926;29;20499;-91
2023/01/01 05:38:10;;;;;;;29.25;24.38;;;13.80;99.90;;;;;;4924834;29;20035;-92
2023/01/01 05:40:40;;;;;;;32.05;25.17;;;13.80;99.90;;;;;;4956374;29;20030;-91
2023/01/01 05:43:06;;;;;;;34.47;26.80;;;13.80;99.90;;;;;;4954717;29;20031;-90
2023/01/01 05:45:33;;;;;;;30.23;27.50;;;13.80;99.90;;;;;;4953782;28;20035;-90
2023/01/01 05:47:59;;;;;;;31.10;27.85;;;13.80;99.90;;;;;;4937783;29;20263;-91
2023/01/01 05:50:25;;;;;;;38.05;27.27;;;13.80;99.90;;;;;;4956201;29;20234;-90
2023/01/01 05:52:51;;;;;;;29.35;26.15;;;13.70;99.90;;;;;;4957973;29;20035;-90
2023/01/01 05:55:17;;;;;;;30.00;25.48;;;13.70;99.90;;;;;;4958042;29;20396;-89
2023/01/01 05:57:43;;;;;;;33.72;30.58;;;13.80;99.90;;;;;;4958480;28;20023;-91
2023/01/01 06:00:10;;;;;;;31.08;28.23;;;13.70;99.90;;;;;;4961142;28;20410;-91
2023/01/01 06:02:36;;;;;;;30.88;27.77;;;13.70;99.90;;;;;;4944570;29;20031;-90
2023/01/01 06:05:02;;;;;;;31.13;26.67;;;13.60;99.90;;;;;;4942985;29;20035;-90
2023/01/01 06:07:28;;;;;;;34.28;29.15;;;13.60;99.90;;;;;;4958429;29;20035;-91
2023/01/01 06:09:54;;;;;;;34.67;29.58;;;13.60;99.90;;;;;;4941373;29;20038;-90
2023/01/01 06:12:20;;;;;;;29.33;26.55;;;13.60;99.90;;;;;;4958661;29;20031;-90
2023/01/01 06:14:46;;;;;;;30.63;27.48;;;13.60;99.90;;;;;;4957929;29;20050;-90
2023/01/01 06:17:12;;;;;;;30.70;27.85;;;13.60;99.90;;;;;;4924450;29;20039;-91
2023/01/01 06:19:39;;;;;;;32.67;28.75;;;13.50;99.90;;;;;;4941229;28;20028;-90
2023/01/01 06:22:05;;;;;;;30.95;28.00;;;13.50;99.90;;;;;;4956950;29;20034;-90
2023/01/01 06:24:31;;;;;;;29.15;25.23;;;13.50;99.90;;;;;;4940399;29;20035;-91
2023/01/01 06:26:57;;;;;;;29.83;27.48;;;13.50;99.90;;;;;;4958092;29;20492;-90
2023/01/01 06:29:23;;;;;;;33.63;27.45;;;13.50;99.90;;;;;;4940432;29;20035;-90
2023/01/01 06:31:49;;;;;;;30.00;27.20;;;13.50;99.90;;;;;;4939765;29;20424;-92
2023/01/01 06:34:15;;;;;;;30.02;25.75;;;13.50;99.90;;;;;;4940043;29;20054;-90
2023/01/01 06:36:41;;;;;;;28.92;25.77;;;13.50;99.90;;;;;;4957972;29;20053;-92
2023/01/01 06:39:07;;;;;;;26.45;23.88;;;13.50;99.90;;;;;;4958045;29;20027;-89
2023/01/01 06:41:33;;;;;;;25.73;23.27;;;13.50;99.90;;;;;;4957892;29;20036;-91
2023/01/01 06:44:00;;;;;;;27.10;24.63;;;13.50;99.90;;;;;;4924567;29;20038;-90
2023/01/01 06:46:28;;;;;;;30.15;26.23;;;13.50;99.90;;;;;;4924412;29;20027;-91
2023/01/01 06:49:02;;;;;;;27.98;25.17;;;13.50;99.90;;;;;;4957731;29;20486;-91
2023/01/01 06:51:30;;;;;;;27.30;24.73;;;13.50;99.90;;;;;;4957899;29;20027;-91
2023/01/01 06:54:00;;;;;;;28.15;25.83;;;13.50;99.90;;;;;;4924779;29;20412;-91
2023/01/01 06:56:26;;;;;;;28.85;26.02;;;13.50;99.90;;;;;;4940274;29;20027;-91
2023/01/01 06:58:53;;;;;;;28.30;25.80;;;13.40;99.90;;;;;;4957177;29;20047;-90
2023/01/01 07:01:21;;;;;;;23.80;21.58;;;13.50;99.90;;;;;;4939971;29;20031;-90
2023/01/01 07:03:54;;;;;;;24.90;22.40;;;13.50;99.90;;;;;;4940497;29;20035;-90
2023/01/01 07:06:21;;;;;;;25.00;22.50;;;13.50;99.90;;;;;;4940287;29;20357;-91
2023/01/01 07:08:47;;;;;;;22.67;20.42;;;13.50;99.90;;;;;;4939453;28;20042;-91
2023/01/01 07:11:13;;;;;;;22.35;20.25;;;13.50;99.90;;;;;;4939430;29;20031;-90
2023/01/01 07:13:39;;;;;;;20.15;18.00;;;13.50;99.90;;;;;;4940183;29;20515;-91
2023/01/01 07:16:06;;;;;;;21.38;15.27;;;13.50;99.90;;;;;;4939521;28;20038;-91
2023/01/01 07:18:32;;;;;;;17.92;16.02;;;13.50;99.90;;;;;;4939996;29;20036;-90
2023/01/01 07:20:59;;;;;;;19.75;17.90;;;13.50;99.90;;;;;;4949873;29;20042;-90
2023/01/01 07:23:26;;;;;;;17.65;15.88;;;13.60;99.90;;;;;;4939879;29;20034;-91
2023/01/01 07:25:52;;;;;;;19.13;15.85;;;13.60;99.90;;;;;;4954496;29;20480;-90
2023/01/01 07:28:18;;;;;;;19.10;17.13;;;13.60;99.90;;;;;;4907738;29;20043;-91
2023/01/01 07:30:45;;;;;;;18.63;16.67;;;13.50;99.90;;;;;;4939422;29;20035;-91
2023/01/01 07:33:12;;;;;;;21.63;18.23;;;13.50;99.90;;;;;;4939675;29;20031;-91
2023/01/01 07:35:39;;;;;;;19.13;17.35;;;13.60;99.90;;;;;;4956856;29;20058;-90
2023/01/01 07:38:05;;;;;;;18.50;16.70;;;13.60;99.90;;;;;;4939535;29;20030;-92
2023/01/01 07:40:31;;;;;;;18.60;17.00;;;13.60;99.90;;;;;;4923560;29;20058;-90
2023/01/01 07:42:57;;;;;;;18.38;16.88;;;13.60;99.90;;;;;;4956717;29;20038;-90
2023/01/01 07:45:24;;;;;;;18.30;16.52;;;13.60;99.90;;;;;;4956250;28;20031;-91
2023/01/01 07:47:52;;;;;;;18.20;16.50;;;13.60;99.90;;;;;;4958135;29;20350;-92
2023/01/01 07:50:18;;;;;;;19.10;16.58;;;13.60;99.90;;;;;;4927576;29;20104;-92
2023/01/01 07:52:44;;;;;;;18.58;17.17;;;13.50;99.90;;;;;;4927500;29;20046;-92
2023/01/01 07:55:14;;;;;;;18.65;17.27;;;13.60;99.90;;;;;;4929094;29;20054;-92
2023/01/01 07:57:41;;;;;;;18.88;16.45;;;13.60;99.90;;;;;;4943042;29;20027;-91
2023/01/01 08:00:08;;;;;;;18.08;16.17;;;13.70;99.90;;;;;;4924706;28;20077;-92
2023/01/01 08:02:34;;;;;;;19.88;16.23;;;13.70;99.90;;;;;;4940276;29;20042;-92
2023/01/01 08:05:00;;;;;;;17.83;16.08;;;13.60;99.90;;;;;;4960611;29;20090;-93
2023/01/01 08:07:26;;;;;;;19.67;16.60;;;13.50;99.90;;;;;;4942366;29;20031;-92
2023/01/01 08:09:52;;;;;;;18.88;15.98;;;13.50;99.90;;;;;;4941271;29;20043;-91
2023/01/01 08:12:18;;;;;;;19.38;16.58;;;13.50;99.90;;;;;;4926484;29;20027;-91
2023/01/01 08:14:45;;;;;;;20.55;17.00;;;13.50;99.90;;;;;;4959189;29;20039;-91
2023/01/01 08:17:11;;;;;;;19.13;16.85;;;13.50;99.90;;;;;;4957207;28;20477;-91
2023/01/01 08:19:37;;;;;;;19.08;17.10;;;13.50;99.90;;;;;;4923796;28;20039;-92
2023/01/01 08:22:03;;;;;;;18.23;16.40;;;13.40;99.90;;;;;;4954961;28;20481;-91
2023/01/01 08:24:29;;;;;;;19.30;17.50;;;13.40;99.90;;;;;;4955574;29;20042;-91
2023/01/01 08:26:55;;;;;;;22.00;16.83;;;13.40;99.90;;;;;;4939135;29;20385;-90
2023/01/01 08:29:21;;;;;;;17.65;15.93;;;13.40;99.90;;;;;;4955180;29;20034;-91
2023/01/01 08:31:47;;;;;;;19.27;16.70;;;13.40;99.90;;;;;;4938036;28;20027;-92
2023/01/01 08:34:13;;;;;;;19.38;17.23;;;13.40;99.90;;;;;;4954789;29;20043;-92
2023/01/01 08:36:39;;;;;;;21.70;15.45;;;13.40;99.90;;;;;;4938818;29;20028;-91
2023/01/01 08:39:06;;;;;;;19.85;16.60;;;13.40;99.90;;;;;;4921985;29;20035;-92
2023/01/01 08:41:32;;;;;;;19.30;17.23;;;13.40;99.90;;;;;;4955003;29;20037;-92
2023/01/01 08:43:58;;;;;;;23.75;17.20;;;13.50;99.90;;;;;;4941475;29;20035;-92
2023/01/01 08:46:24;;;;;;;19.40;17.40;;;13.50;99.90;;;;;;4960512;28;20484;-91
2023/01/01 08:48:51;;;;;;;22.08;16.13;;;13.60;99.90;;;;;;4959371;29;20039;-91
2023/01/01 08:51:17;;;;;;;24.85;15.93;;;13.60;99.90;;;;;;4942923;29;20039;-92
2023/01/01 08:53:43;;;;;;;20.42;16.60;;;13.60;99.90;;;;;;4959316;29;20108;-91
2023/01/01 08:56:10;;;;;;;21.67;16.20;;;13.50;99.90;;;;;;4926692;29;20047;-90
2023/01/01 08:58:37;;;;;;;20.65;16.55;;;13.60;99.90;;;;;;4942913;28;20039;-92
2023/01/01 09:01:04;;;;;;;19.70;17.48;;;13.60;99.90;;;;;;4939416;28;20055;-92
2023/01/01 09:03:30;;;;;;;22.88;18.50;;;13.50;99.90;;;;;;4922010;29;20039;-91
2023/01/01 09:05:56;;;;;;;19.95;17.42;;;13.50;99.90;;;;;;4937622;29;20039;-91
2023/01/01 09:08:22;;;;;;;24.73;18.63;;;13.50;99.90;;;;;;4938089;29;20385;-92
2023/01/01 09:10:49;;;;;;;23.67;18.42;;;13.60;99.90;;;;;;4953917;29;20039;-92
2023/01/01 09:13:16;;;;;;;26.10;17.33;;;13.70;99.90;;;;;;4954241;29;20042;-91
2023/01/01 09:15:42;;;;;;;21.63;19.65;;;13.50;99.90;;;;;;4921305;28;20047;-91
2023/01/01 09:18:09;;;;;;;22.42;18.33;;;13.60;99.90;;;;;;4953932;29;20027;-91
2023/01/01 09:20:35;;;;;;;24.17;18.67;;;13.60;99.90;;;;;;4955368;28;20031;-91
2023/01/01 09:23:01;;;;;;;21.08;18.23;;;13.50;99.90;;;;;;4937674;29;20034;-92
2023/01/01 09:25:27;;;;;;;22.95;18.42;;;13.50;99.90;;;;;;4954740;29;20027;-92
2023/01/01 09:28:01;;;;;;;24.52;20.17;;;13.50;99.90;;;;;;4936931;29;20046;-93
2023/01/01 09:30:27;;;;;;;26.60;17.95;;;13.40;99.90;;;;;;4937706;28;20039;-91
2023/01/01 09:32:53;;;;;;;19.48;17.38;;;13.40;99.90;;;;;;4937358;29;20357;-91
2023/01/01 09:35:19;;;;;;;23.58;17.83;;;13.50;99.90;;;;;;4954568;29;20044;-92
2023/01/01 09:37:45;;;;;;;20.80;18.63;;;13.50;99.90;;;;;;4921524;29;20035;-93
2023/01/01 09:40:30;;;;;;;21.35;19.17;;;13.50;99.90;;;;;;4921637;29;20046;-90
2023/01/01 09:43:12;;;;;;;24.77;20.35;;;13.40;99.90;;;;;;4937859;29;20035;-91
2023/01/01 09:46:05;;;;;;;21.80;19.50;;;13.40;99.90;;;;;;4937034;29;20392;-91
2023/01/01 09:48:32;;;;;;;23.02;20.77;;;13.60;99.90;;;;;;4927398;29;20035;-92
2023/01/01 09:50:59;;;;;;;24.90;22.38;;;13.60;99.90;;;;;;4937238;29;20035;-90
2023/01/01 09:53:40;;;;;;;27.67;19.92;;;13.50;99.90;;;;;;4921607;29;20385;-90
2023/01/01 09:56:08;;;;;;;;;;;13.40;99.90;;;;;;4937783;29;20046;-90
2023/01/01 09:58:35;;;;;;;22.73;20.42;;;13.50;99.90;;;;;;4937022;29;19907;-91
2023/01/01 10:01:23;;;;;;;24.98;22.15;;;13.50;99.90;;;;;;4921057;29;20515;-91
2023/01/01 10:04:00;;;;;;;25.50;22.45;;;13.50;99.90;;;;;;4954345;29;20046;-92
2023/01/01 10:06:26;;;;;;;28.17;23.42;;;13.50;99.90;;;;;;4937888;29;20030;-90
2023/01/01 10:09:10;;;;;;;26.73;24.15;;;13.50;99.90;;;;;;4937234;29;20046;-89
2023/01/01 10:12:02;;;;;;;26.02;23.55;;;13.40;99.90;;;;;;4938296;29;20039;-91
2023/01/01 10:14:32;;;;;;;25.67;22.95;;;13.50;99.90;;;;;;4841903;29;20049;-91
2023/01/01 10:17:00;;;;;;;26.85;24.08;;;13.60;99.90;;;;;;4841581;29;20034;-90
2023/01/01 10:19:43;;;;;;;26.33;23.70;;;13.60;99.90;;;;;;4843075;29;20046;-91
2023/01/01 10:22:32;;;;;;;30.33;27.55;;;13.60;99.90;;;;;;4860801;29;20041;-89
2023/01/01 10:25:00;;;;;;;27.92;25.33;;;13.50;99.90;;;;;;4861113;29;20052;-89
2023/01/01 10:27:47;;;;;;;28.42;25.52;;;13.40;99.90;;;;;;4860039;29;20042;-90
2023/01/01 10:30:22;;;;;;;28.40;25.90;;;13.50;99.90;;;;;;4841721;29;20053;-90
2023/01/01 10:32:49;;;;;;;27.40;24.83;;;13.40;99.90;;;;;;4842623;29;20050;-90
2023/01/01 10:35:32;;;;;;;24.77;22.17;;;13.30;99.90;;;;;;4857713;29;20494;-91
2023/01/01 10:37:58;;;;;;;28.15;25.65;;;13.20;99.90;;;;;;4844158;29;20042;-91
2023/01/01 10:40:26;;;;;;;28.70;25.65;;;13.20;99.90;;;;;;4842692;29;20411;-91
2023/01/01 10:42:56;;;;;;;29.17;26.55;;;13.20;99.90;;;;;;4842900;29;20038;-90
2023/01/01 10:45:39;;;;;;;29.02;26.60;;;13.30;99.90;;;;;;4845090;29;20042;-91
2023/01/01 10:48:13;;;;;;;29.67;27.15;;;13.40;99.90;;;;;;4846052;29;20034;-90
2023/01/01 10:50:44;;;;;;;27.63;25.02;;;13.40;99.90;;;;;;4866475;29;20043;-90
2023/01/01 10:53:24;;;;;;;;;;;13.20;99.90;;;;;;4940554;29;20047;-91
2023/01/01 10:55:56;;;;;;;32.28;29.33;;;13.10;99.90;;;;;;4940475;29;20292;-90
2023/01/01 10:58:45;;;;;;;39.35;35.70;;;13.10;99.90;;;;;;4925163;29;20035;-91
2023/01/01 11:01:18;;;;;;;37.33;34.05;;;13.00;99.90;;;;;;4926733;29;20058;-91
2023/01/01 11:04:13;;;;;;;33.92;30.40;;;13.00;99.90;;;;;;4924784;29;20050;-90
2023/01/01 11:06:45;;;;;;;52.35;46.45;;;12.90;99.90;;;;;;4956784;29;20481;-90
2023/01/01 11:09:25;;;;;;;35.03;31.88;;;12.90;99.90;;;;;;4925283;29;20027;-90
2023/01/01 11:12:02;;;;;;;30.50;27.75;;;12.90;99.90;;;;;;4940542;29;20030;-90
2023/01/01 11:14:29;;;;;;;31.13;28.38;;;12.90;99.90;;;;;;4941369;29;20047;-90
2023/01/01 11:16:55;;;;;;;30.92;28.60;;;13.00;99.90;;;;;;4940558;29;20465;-90
2023/01/01 11:19:32;;;;;;;31.85;28.77;;;12.90;99.90;;;;;;4924008;28;20038;-93
2023/01/01 11:21:59;;;;;;;35.38;32.65;;;12.80;99.90;;;;;;4956673;29;20035;-89
2023/01/01 11:24:29;;;;;;;33.08;29.83;;;12.90;99.90;;;;;;4957021;29;20035;-90
2023/01/01 11:27:22;;;;;;;31.13;28.10;;;12.90;99.90;;;;;;4930431;29;20043;-90
2023/01/01 11:29:50;;;;;;;30.48;27.65;;;12.90;99.90;;;;;;4930158;29;20388;-89
2023/01/01 11:32:22;;;;;;;32.65;29.60;;;12.90;99.90;;;;;;4923659;29;20032;-90
2023/01/01 11:34:55;;;;;;;32.60;29.60;;;12.90;99.90;;;;;;4924360;29;20480;-91
2023/01/01 11:37:23;;;;;;;33.50;30.27;;;13.00;99.90;;;;;;4908886;29;20039;-90
2023/01/01 11:39:50;;;;;;;31.73;29.15;;;13.00;99.90;;;;;;4941047;29;20031;-90
2023/01/01 11:42:24;;;;;;;34.47;31.38;;;13.00;99.90;;;;;;4942046;29;20038;-89
2023/01/01 11:44:52;;;;;;;33.03;30.13;;;12.90;99.90;;;;;;4927121;29;20027;-90
2023/01/01 11:47:34;;;;;;;29.08;26.73;;;13.00;99.90;;;;;;4942238;29;20034;-90
2023/01/01 11:50:12;;;;;;;31.92;28.83;;;12.90;99.90;;;;;;4927394;29;20028;-89
2023/01/01 11:52:43;;;;;;;185.13;121.38;;;12.90;99.90;;;;;;4960537;29;20031;-90
2023/01/01 11:55:23;;;;;;;95.68;72.60;;;13.00;99.90;;;;;;4926759;28;20039;-89
2023/01/01 11:58:18;;;;;;;42.63;38.33;;;13.00;99.90;;;;;;4943182;29;20372;-90
2023/01/01 12:00:44;;;;;;;37.40;32.47;;;13.00;99.90;;;;;;4938743;28;20043;-89
2023/01/01 12:03:24;;;;;;;40.55;36.28;;;13.00;99.90;;;;;;4923608;29;20046;-90
2023/01/01 12:06:10;;;;;;;31.67;28.55;;;13.00;99.90;;;;;;4924186;29;20023;-90
2023/01/01 12:08:39;;;;;;;27.30;24.73;;;13.10;99.90;;;;;;4941630;29;20523;-89
2023/01/01 12:11:35;;;;;;;30.42;26.02;;;13.00;99.90;;;;;;4939413;29;20027;-90
2023/01/01 12:14:24;;;;;;;31.60;28.27;;;13.00;99.90;;;;;;4954364;29;20039;-91
2023/01/01 12:17:22;;;;;;;33.08;28.67;;;13.10;99.90;;;;;;4931238;29;20039;-90
2023/01/01 12:20:02;;;;;;;27.58;23.95;;;13.10;99.90;;;;;;4941359;29;20086;-88
2023/01/01 12:22:28;;;;;;;35.47;29.25;;;13.10;99.90;;;;;;4955075;29;20031;-90
2023/01/01 12:24:54;;;;;;;29.95;26.83;;;13.10;99.90;;;;;;4938960;29;20042;-90
2023/01/01 12:27:45;;;;;;;34.33;26.65;;;13.20;99.90;;;;;;4925741;29;20373;-91
2023/01/01 12:30:18;;;;;;;41.75;30.75;;;13.20;99.90;;;;;;4955124;28;20035;-90
2023/01/01 12:33:03;;;;;;;26.92;24.23;;;13.20;99.90;;;;;;4956034;29;20469;-92
2023/01/01 12:35:56;;;;;;;50.75;33.70;;;13.20;99.90;;;;;;4956417;29;20054;-90
2023/01/01 12:38:22;;;;;;;62.25;41.58;;;13.10;99.90;;;;;;4939312;29;20389;-90
2023/01/01 12:41:17;;;;;;;54.22;36.17;;;13.20;99.90;;;;;;4957871;29;20054;-91
2023/01/01 12:44:05;;;;;;;36.90;28.77;;;13.10;99.90;;;;;;4845019;29;20085;-90
2023/01/01 12:47:01;;;;;;;35.83;29.92;;;13.10;99.90;;;;;;4859872;29;20040;-90
2023/01/01 12:49:42;;;;;;;28.77;25.02;;;13.20;99.90;;;;;;4849713;29;20038;-91